Time,TemperatureF,DewpointF,PressureIn,WindDirection,WindDirectionDegrees,WindSpeedMPH,WindSpeedGustMPH,Humidity,HourlyPrecipIn,Conditions,Clouds,dailyrainin,SolarRadiationWatts/m^2,SoftwareType,DateUTC
2013-07-30 00:02:00,64.0,43.0,-100.00,WNW,296,7.0,19.0,46,0.00,,,0.00,0.000000,,2013-07-30 07:02:00,
2013-07-30 00:13:00,64.0,43.0,-100.00,WNW,296,7.0,19.0,46,0.00,,,0.00,0.000000,,2013-07-30 07:13:00,
2013-07-30 00:43:00,63.0,45.0,-100.00,WNW,288,8.0,19.0,51,0.00,,,0.00,0.000000,,2013-07-30 07:43:00,
2013-07-30 00:53:00,63.0,45.0,-100.00,WNW,288,8.0,19.0,51,0.00,,,0.00,0.000000,,2013-07-30 07:53:00,
2013-07-30 01:02:00,63.0,45.0,-100.00,WNW,288,8.0,19.0,51,0.00,,,0.00,0.000000,,2013-07-30 08:02:00,
2013-07-30 01:12:00,63.0,45.0,-100.00,WNW,288,8.0,19.0,51,0.00,,,0.00,0.000000,,2013-07-30 08:12:00,
2013-07-30 01:43:00,62.0,47.0,-100.00,WNW,297,7.0,20.0,57,0.00,,,0.00,0.000000,,2013-07-30 08:43:00,
2013-07-30 01:53:00,62.0,47.0,-100.00,WNW,297,7.0,20.0,57,0.00,,,0.00,0.000000,,2013-07-30 08:53:00,
2013-07-30 02:02:00,62.0,47.0,-100.00,WNW,297,7.0,20.0,57,0.00,,,0.00,0.000000,,2013-07-30 09:02:00,
2013-07-30 02:12:00,62.0,47.0,-100.00,WNW,297,7.0,20.0,57,0.00,,,0.00,0.000000,,2013-07-30 09:12:00,
2013-07-30 02:43:00,60.0,47.0,-100.00,WNW,285,7.0,15.0,62,0.00,,,0.00,0.000000,,2013-07-30 09:43:00,
2013-07-30 02:53:00,60.0,47.0,-100.00,WNW,285,7.0,15.0,62,0.00,,,0.00,0.000000,,2013-07-30 09:53:00,
2013-07-30 03:02:00,60.0,47.0,-100.00,WNW,285,7.0,15.0,62,0.00,,,0.00,0.000000,,2013-07-30 10:02:00,
2013-07-30 03:12:00,60.0,47.0,-100.00,WNW,285,7.0,15.0,62,0.00,,,0.00,0.000000,,2013-07-30 10:12:00,
2013-07-30 03:44:00,58.0,52.0,-100.00,NW,313,7.0,15.0,81,0.00,,,0.00,0.000000,,2013-07-30 10:44:00,
2013-07-30 03:52:00,58.0,52.0,-100.00,NW,313,7.0,15.0,81,0.00,,,0.00,0.000000,,2013-07-30 10:52:00,
2013-07-30 04:02:00,58.0,52.0,-100.00,NW,313,7.0,15.0,81,0.00,,,0.00,0.000000,,2013-07-30 11:02:00,
2013-07-30 04:11:00,58.0,52.0,-100.00,NW,313,7.0,15.0,81,0.00,,,0.00,0.000000,,2013-07-30 11:11:00,
2013-07-30 04:43:00,56.0,51.0,-100.00,NW,318,6.0,16.0,83,0.00,,,0.00,0.000000,,2013-07-30 11:43:00,
2013-07-30 04:53:00,56.0,51.0,-100.00,NW,318,6.0,16.0,83,0.00,,,0.00,0.000000,,2013-07-30 11:53:00,
2013-07-30 05:12:00,56.0,51.0,-100.00,NW,318,6.0,16.0,83,0.00,,,0.00,0.000000,,2013-07-30 12:12:00,
2013-07-30 05:42:00,55.0,51.0,-100.00,NW,317,5.0,13.0,86,0.00,,,0.00,0.000000,,2013-07-30 12:42:00,
2013-07-30 05:53:00,55.0,51.0,-100.00,NW,317,5.0,13.0,86,0.00,,,0.00,0.000000,,2013-07-30 12:53:00,
2013-07-30 06:01:00,55.0,51.0,-100.00,NW,317,5.0,13.0,86,0.00,,,0.00,0.000000,,2013-07-30 13:01:00,
2013-07-30 06:12:00,55.0,51.0,-100.00,NW,317,5.0,13.0,86,0.00,,,0.00,0.000000,,2013-07-30 13:12:00,
2013-07-30 06:43:00,55.0,51.0,-100.00,NW,310,5.0,12.0,86,0.00,,,0.00,10.000000,,2013-07-30 13:43:00,
2013-07-30 06:52:00,55.0,51.0,-100.00,NW,310,5.0,12.0,86,0.00,,,0.00,10.000000,,2013-07-30 13:52:00,
2013-07-30 07:02:00,55.0,51.0,-100.00,NW,310,5.0,12.0,86,0.00,,,0.00,10.000000,,2013-07-30 14:02:00,
2013-07-30 07:12:00,55.0,51.0,-100.00,NW,310,5.0,12.0,86,0.00,,,0.00,10.000000,,2013-07-30 14:12:00,
2013-07-30 07:43:00,59.0,52.0,-100.00,NW,307,6.0,15.0,77,0.00,,,0.00,71.000000,,2013-07-30 14:43:00,
2013-07-30 07:53:00,59.0,52.0,-100.00,NW,307,6.0,15.0,77,0.00,,,0.00,71.000000,,2013-07-30 14:53:00,
2013-07-30 08:02:00,59.0,52.0,-100.00,NW,307,6.0,15.0,77,0.00,,,0.00,71.000000,,2013-07-30 15:02:00,
2013-07-30 08:12:00,59.0,52.0,-100.00,NW,307,6.0,15.0,77,0.00,,,0.00,71.000000,,2013-07-30 15:12:00,
2013-07-30 08:43:00,62.0,51.0,-100.00,WNW,299,8.0,15.0,68,0.00,,,0.00,255.000000,,2013-07-30 15:43:00,
2013-07-30 08:53:00,62.0,51.0,-100.00,WNW,299,8.0,15.0,68,0.00,,,0.00,255.000000,,2013-07-30 15:53:00,
2013-07-30 09:02:00,62.0,51.0,-100.00,WNW,299,8.0,15.0,68,0.00,,,0.00,255.000000,,2013-07-30 16:02:00,
2013-07-30 09:12:00,62.0,51.0,-100.00,WNW,299,8.0,15.0,68,0.00,,,0.00,255.000000,,2013-07-30 16:12:00,
2013-07-30 09:44:00,65.0,54.0,-100.00,NW,314,5.0,12.0,67,0.00,,,0.00,301.000000,,2013-07-30 16:44:00,
2013-07-30 09:52:00,65.0,54.0,-100.00,NW,314,5.0,12.0,67,0.00,,,0.00,301.000000,,2013-07-30 16:52:00,
2013-07-30 10:02:00,65.0,54.0,-100.00,NW,314,5.0,12.0,67,0.00,,,0.00,301.000000,,2013-07-30 17:02:00,
2013-07-30 10:43:00,70.0,54.0,-100.00,NW,318,6.0,13.0,57,0.00,,,0.00,681.000000,,2013-07-30 17:43:00,
2013-07-30 10:53:00,70.0,54.0,-100.00,NW,318,6.0,13.0,57,0.00,,,0.00,681.000000,,2013-07-30 17:53:00,
2013-07-30 11:02:00,70.0,54.0,-100.00,NW,318,6.0,13.0,57,0.00,,,0.00,681.000000,,2013-07-30 18:02:00,
2013-07-30 11:12:00,70.0,54.0,-100.00,NW,318,6.0,13.0,57,0.00,,,0.00,681.000000,,2013-07-30 18:12:00,
2013-07-30 11:43:00,75.0,53.0,-100.00,WNW,294,6.0,14.0,46,0.00,,,0.00,861.000000,,2013-07-30 18:43:00,
2013-07-30 11:52:00,75.0,53.0,-100.00,WNW,294,6.0,14.0,46,0.00,,,0.00,861.000000,,2013-07-30 18:52:00,
2013-07-30 12:02:00,75.0,53.0,-100.00,WNW,294,6.0,14.0,46,0.00,,,0.00,861.000000,,2013-07-30 19:02:00,
2013-07-30 12:11:00,75.0,53.0,-100.00,WNW,294,6.0,14.0,46,0.00,,,0.00,861.000000,,2013-07-30 19:11:00,
2013-07-30 12:44:00,76.0,52.0,-100.00,NW,325,7.0,14.0,44,0.00,,,0.00,960.000000,,2013-07-30 19:44:00,
2013-07-30 12:52:00,76.0,52.0,-100.00,NW,325,7.0,14.0,44,0.00,,,0.00,960.000000,,2013-07-30 19:52:00,
2013-07-30 13:02:00,76.0,52.0,-100.00,NW,325,7.0,14.0,44,0.00,,,0.00,960.000000,,2013-07-30 20:02:00,
2013-07-30 13:12:00,76.0,52.0,-100.00,NW,325,7.0,14.0,44,0.00,,,0.00,960.000000,,2013-07-30 20:12:00,
2013-07-30 13:43:00,79.0,51.0,-100.00,NW,311,7.0,14.0,38,0.00,,,0.00,1017.000000,,2013-07-30 20:43:00,
2013-07-30 13:52:00,79.0,51.0,-100.00,NW,311,7.0,14.0,38,0.00,,,0.00,1017.000000,,2013-07-30 20:52:00,
2013-07-30 14:02:00,79.0,51.0,-100.00,NW,311,7.0,14.0,38,0.00,,,0.00,1017.000000,,2013-07-30 21:02:00,
2013-07-30 14:12:00,79.0,51.0,-100.00,NW,311,7.0,14.0,38,0.00,,,0.00,1017.000000,,2013-07-30 21:12:00,
2013-07-30 14:42:00,78.0,46.0,-100.00,NNW,335,9.0,16.0,32,0.00,,,0.00,956.000000,,2013-07-30 21:42:00,
2013-07-30 14:53:00,78.0,46.0,-100.00,NNW,335,9.0,16.0,32,0.00,,,0.00,956.000000,,2013-07-30 21:53:00,
2013-07-30 15:02:00,78.0,46.0,-100.00,NNW,335,9.0,16.0,32,0.00,,,0.00,956.000000,,2013-07-30 22:02:00,
2013-07-30 15:11:00,78.0,46.0,-100.00,NNW,335,9.0,16.0,32,0.00,,,0.00,956.000000,,2013-07-30 22:11:00,
2013-07-30 15:32:00,80.0,47.0,-100.00,NNW,330,7.0,15.0,31,0.00,,,0.00,925.000000,,2013-07-30 22:32:00,
2013-07-30 15:43:00,80.0,47.0,-100.00,NNW,330,7.0,15.0,31,0.00,,,0.00,925.000000,,2013-07-30 22:43:00,
2013-07-30 15:52:00,80.0,47.0,-100.00,NNW,330,7.0,15.0,31,0.00,,,0.00,925.000000,,2013-07-30 22:52:00,
2013-07-30 16:02:00,80.0,47.0,-100.00,NNW,330,7.0,15.0,31,0.00,,,0.00,925.000000,,2013-07-30 23:02:00,
2013-07-30 16:11:00,80.0,47.0,-100.00,NNW,330,7.0,15.0,31,0.00,,,0.00,925.000000,,2013-07-30 23:11:00,
2013-07-30 16:42:00,82.0,44.0,-100.00,WNW,303,7.0,15.0,26,0.00,,,0.00,793.000000,,2013-07-30 23:42:00,
2013-07-30 16:53:00,82.0,44.0,-100.00,WNW,303,7.0,15.0,26,0.00,,,0.00,793.000000,,2013-07-30 23:53:00,
2013-07-30 17:02:00,82.0,44.0,-100.00,WNW,303,7.0,15.0,26,0.00,,,0.00,793.000000,,2013-07-31 00:02:00,
2013-07-30 17:11:00,82.0,44.0,-100.00,WNW,303,7.0,15.0,26,0.00,,,0.00,793.000000,,2013-07-31 00:11:00,
2013-07-30 17:43:00,82.0,44.0,-100.00,NW,313,6.0,17.0,26,0.00,,,0.00,588.000000,,2013-07-31 00:43:00,
2013-07-30 17:53:00,82.0,44.0,-100.00,NW,313,6.0,17.0,26,0.00,,,0.00,588.000000,,2013-07-31 00:53:00,
2013-07-30 18:02:00,82.0,44.0,-100.00,NW,313,6.0,17.0,26,0.00,,,0.00,588.000000,,2013-07-31 01:02:00,
2013-07-30 18:12:00,82.0,44.0,-100.00,NW,313,6.0,17.0,26,0.00,,,0.00,588.000000,,2013-07-31 01:12:00,
2013-07-30 19:43:00,74.0,45.0,-100.00,NW,307,6.0,14.0,36,-99.99,,,0.00,158.000000,,2013-07-31 02:43:00,
2013-07-30 19:52:00,74.0,45.0,-100.00,NW,307,6.0,14.0,36,-99.99,,,0.00,158.000000,,2013-07-31 02:52:00,
2013-07-30 20:02:00,74.0,45.0,-100.00,NW,307,6.0,14.0,36,-99.99,,,0.00,158.000000,,2013-07-31 03:02:00,
2013-07-30 20:12:00,74.0,45.0,-100.00,NW,307,6.0,14.0,36,-99.99,,,0.00,158.000000,,2013-07-31 03:12:00,
2013-07-30 20:42:00,72.0,44.0,-100.00,WNW,293,6.0,17.0,36,0.00,,,0.00,82.000000,,2013-07-31 03:42:00,
2013-07-30 20:52:00,72.0,44.0,-100.00,WNW,293,6.0,17.0,36,0.00,,,0.00,82.000000,,2013-07-31 03:52:00,
2013-07-30 21:02:00,72.0,44.0,-100.00,WNW,293,6.0,17.0,36,0.00,,,0.00,82.000000,,2013-07-31 04:02:00,
2013-07-30 21:12:00,72.0,44.0,-100.00,WNW,293,6.0,17.0,36,0.00,,,0.00,82.000000,,2013-07-31 04:12:00,
2013-07-30 21:32:00,69.0,44.0,-100.00,WNW,287,7.0,14.0,41,0.00,,,0.00,4.000000,,2013-07-31 04:32:00,
2013-07-30 21:42:00,69.0,44.0,-100.00,WNW,287,7.0,14.0,41,0.00,,,0.00,4.000000,,2013-07-31 04:42:00,
2013-07-30 21:52:00,69.0,44.0,-100.00,WNW,287,7.0,14.0,41,0.00,,,0.00,4.000000,,2013-07-31 04:52:00,
2013-07-30 22:02:00,69.0,44.0,-100.00,WNW,287,7.0,14.0,41,0.00,,,0.00,4.000000,,2013-07-31 05:02:00,
2013-07-30 22:11:00,69.0,44.0,-100.00,WNW,287,7.0,14.0,41,0.00,,,0.00,4.000000,,2013-07-31 05:11:00,
2013-07-30 23:43:00,67.0,36.0,-100.00,WNW,285,7.0,16.0,32,0.00,,,0.00,0.000000,,2013-07-31 06:43:00,
2013-07-30 23:53:00,67.0,36.0,-100.00,WNW,285,7.0,16.0,32,0.00,,,0.00,0.000000,,2013-07-31 06:53:00,